EZY2145 EGCC-EGAA
Flight info
| Callsign | EZY2145 |
|---|---|
| Flight time | 0h 39m |
| Altitude | 24000 |
| Route | ASMIM L975 WAL M146 IPSET P6 BELZU |
| Aircraft | A320/M-SDE3FGHIRWY/LB1 |
Departure
| Time | 2026-05-06 07:55 |
|---|---|
| Airport | Manchester Airport (EGCC) |
Arrival
| Time | 2026-05-06 08:34 |
|---|---|
| Airport | Belfast International Airport (EGAA) |
| Time | Latitude | Longitude | Altitude | Speed | Heading |
|---|---|---|---|---|---|
| 2026-05-06 07:04 | 53.35980 | -2.27404 | 255 ft | 0 kts | 275° |
| 2026-05-06 07:44 | 53.35979 | -2.27375 | 255 ft | 4 kts | 269° |
| 2026-05-06 07:45 | 53.35983 | -2.27334 | 255 ft | 4 kts | 231° |
| 2026-05-06 07:45 | 53.35996 | -2.27320 | 255 ft | 0 kts | 179° |
| 2026-05-06 07:48 | 53.35989 | -2.27320 | 255 ft | 2 kts | 179° |
| 2026-05-06 07:48 | 53.35972 | -2.27319 | 255 ft | 6 kts | 179° |
| 2026-05-06 07:49 | 53.35928 | -2.27318 | 255 ft | 6 kts | 179° |
| 2026-05-06 07:49 | 53.35891 | -2.27317 | 255 ft | 5 kts | 180° |
| 2026-05-06 07:49 | 53.35850 | -2.27317 | 255 ft | 6 kts | 180° |
| 2026-05-06 07:49 | 53.35811 | -2.27318 | 255 ft | 5 kts | 184° |
| 2026-05-06 07:50 | 53.35781 | -2.27336 | 255 ft | 5 kts | 212° |
| 2026-05-06 07:50 | 53.35746 | -2.27405 | 255 ft | 18 kts | 231° |
| 2026-05-06 07:50 | 53.35645 | -2.27615 | 245 ft | 28 kts | 227° |
| 2026-05-06 07:50 | 53.35511 | -2.27833 | 239 ft | 26 kts | 224° |
| 2026-05-06 07:51 | 53.35398 | -2.28017 | 237 ft | 22 kts | 224° |
| 2026-05-06 07:51 | 53.35285 | -2.28198 | 232 ft | 21 kts | 224° |
| 2026-05-06 07:51 | 53.35181 | -2.28404 | 229 ft | 26 kts | 231° |
| 2026-05-06 07:51 | 53.35062 | -2.28650 | 229 ft | 23 kts | 231° |
| 2026-05-06 07:52 | 53.34964 | -2.28829 | 226 ft | 23 kts | 226° |
| 2026-05-06 07:52 | 53.34845 | -2.29044 | 218 ft | 28 kts | 227° |
| 2026-05-06 07:52 | 53.34731 | -2.29265 | 214 ft | 22 kts | 227° |
| 2026-05-06 07:52 | 53.34680 | -2.29326 | 211 ft | 1 kts | 203° |
| 2026-05-06 07:53 | 53.34668 | -2.29334 | 213 ft | 4 kts | 199° |
| 2026-05-06 07:53 | 53.34625 | -2.29344 | 215 ft | 6 kts | 180° |
| 2026-05-06 07:53 | 53.34584 | -2.29329 | 216 ft | 13 kts | 159° |
| 2026-05-06 07:53 | 53.34564 | -2.29179 | 213 ft | 16 kts | 56° |
| 2026-05-06 07:54 | 53.34646 | -2.29001 | 219 ft | 32 kts | 51° |
| 2026-05-06 07:54 | 53.34959 | -2.28353 | 233 ft | 107 kts | 51° |
| 2026-05-06 07:54 | 53.35546 | -2.27136 | 255 ft | 160 kts | 50° |
| 2026-05-06 07:54 | 53.36276 | -2.25641 | 795 ft | 165 kts | 51° |
| 2026-05-06 07:55 | 53.36999 | -2.24151 | 1512 ft | 173 kts | 51° |
| 2026-05-06 07:55 | 53.37802 | -2.22489 | 1951 ft | 195 kts | 51° |
| 2026-05-06 07:55 | 53.38858 | -2.20928 | 2357 ft | 218 kts | 24° |
| 2026-05-06 07:55 | 53.40435 | -2.20794 | 2805 ft | 247 kts | 344° |
| 2026-05-06 07:56 | 53.41852 | -2.22524 | 3590 ft | 263 kts | 306° |
| 2026-05-06 07:56 | 53.42442 | -2.25424 | 4529 ft | 270 kts | 277° |
| 2026-05-06 07:56 | 53.42411 | -2.28579 | 4892 ft | 269 kts | 271° |
| 2026-05-06 07:56 | 53.42795 | -2.31553 | 4998 ft | 260 kts | 301° |
| 2026-05-06 07:57 | 53.43847 | -2.33977 | 4998 ft | 257 kts | 314° |
| 2026-05-06 07:57 | 53.44977 | -2.36295 | 5001 ft | 257 kts | 308° |
| 2026-05-06 07:57 | 53.45971 | -2.38746 | 5000 ft | 258 kts | 304° |
| 2026-05-06 07:57 | 53.46700 | -2.41507 | 4998 ft | 262 kts | 286° |
| 2026-05-06 07:58 | 53.46864 | -2.44568 | 4997 ft | 266 kts | 268° |
| 2026-05-06 07:58 | 53.46560 | -2.47642 | 5005 ft | 268 kts | 262° |
| 2026-05-06 07:58 | 53.46212 | -2.50713 | 4999 ft | 268 kts | 262° |
| 2026-05-06 07:58 | 53.45867 | -2.53788 | 5002 ft | 268 kts | 262° |
| 2026-05-06 07:59 | 53.45524 | -2.56860 | 5002 ft | 268 kts | 262° |
| 2026-05-06 07:59 | 53.45188 | -2.59901 | 5002 ft | 269 kts | 261° |
| 2026-05-06 07:59 | 53.44850 | -2.62996 | 4999 ft | 270 kts | 261° |
| 2026-05-06 07:59 | 53.44511 | -2.66098 | 5006 ft | 271 kts | 262° |
| 2026-05-06 08:00 | 53.44164 | -2.69256 | 5687 ft | 276 kts | 262° |
| 2026-05-06 08:00 | 53.43815 | -2.72403 | 6787 ft | 274 kts | 261° |
| 2026-05-06 08:00 | 53.43466 | -2.75545 | 7744 ft | 275 kts | 262° |
| 2026-05-06 08:00 | 53.43115 | -2.78705 | 8676 ft | 276 kts | 262° |
| 2026-05-06 08:01 | 53.42763 | -2.81879 | 9599 ft | 278 kts | 262° |
| 2026-05-06 08:01 | 53.42406 | -2.85096 | 10306 ft | 288 kts | 262° |
| 2026-05-06 08:01 | 53.42027 | -2.88532 | 10587 ft | 311 kts | 262° |
| 2026-05-06 08:01 | 53.41628 | -2.92126 | 11138 ft | 322 kts | 261° |
| 2026-05-06 08:02 | 53.41208 | -2.95844 | 11897 ft | 327 kts | 261° |
| 2026-05-06 08:02 | 53.40778 | -2.99606 | 12685 ft | 330 kts | 261° |
| 2026-05-06 08:02 | 53.40341 | -3.03406 | 13465 ft | 334 kts | 261° |
| 2026-05-06 08:02 | 53.39986 | -3.07264 | 14189 ft | 336 kts | 268° |
| 2026-05-06 08:03 | 53.40134 | -3.11175 | 14855 ft | 338 kts | 282° |
| 2026-05-06 08:03 | 53.40845 | -3.14930 | 15541 ft | 340 kts | 295° |
| 2026-05-06 08:03 | 53.42096 | -3.18304 | 16213 ft | 344 kts | 309° |
| 2026-05-06 08:03 | 53.43756 | -3.21226 | 16874 ft | 347 kts | 314° |
| 2026-05-06 08:04 | 53.45442 | -3.24073 | 17520 ft | 351 kts | 314° |
| 2026-05-06 08:04 | 53.47168 | -3.26996 | 18176 ft | 354 kts | 314° |
| 2026-05-06 08:04 | 53.48907 | -3.29953 | 18763 ft | 358 kts | 313° |
| 2026-05-06 08:04 | 53.50656 | -3.32944 | 19329 ft | 360 kts | 313° |
| 2026-05-06 08:05 | 53.52417 | -3.35969 | 19911 ft | 363 kts | 313° |
| 2026-05-06 08:05 | 53.54188 | -3.39019 | 20483 ft | 366 kts | 313° |
| 2026-05-06 08:05 | 53.55976 | -3.42100 | 21062 ft | 369 kts | 313° |
| 2026-05-06 08:05 | 53.57749 | -3.45237 | 21631 ft | 371 kts | 308° |
| 2026-05-06 08:06 | 53.59273 | -3.48684 | 22187 ft | 373 kts | 304° |
| 2026-05-06 08:06 | 53.60777 | -3.52263 | 22761 ft | 376 kts | 304° |
| 2026-05-06 08:06 | 53.62294 | -3.55878 | 23322 ft | 379 kts | 304° |
| 2026-05-06 08:06 | 53.63823 | -3.59520 | 23830 ft | 382 kts | 303° |
| 2026-05-06 08:07 | 53.65361 | -3.63188 | 24023 ft | 383 kts | 303° |
| 2026-05-06 08:07 | 53.66897 | -3.66846 | 24060 ft | 381 kts | 304° |
| 2026-05-06 08:07 | 53.68425 | -3.70485 | 24083 ft | 380 kts | 304° |
| 2026-05-06 08:07 | 53.69947 | -3.74118 | 24071 ft | 379 kts | 303° |
| 2026-05-06 08:08 | 53.71443 | -3.77704 | 24079 ft | 379 kts | 303° |
| 2026-05-06 08:08 | 53.72958 | -3.81342 | 24076 ft | 379 kts | 303° |
| 2026-05-06 08:08 | 53.74470 | -3.84980 | 24072 ft | 379 kts | 303° |
| 2026-05-06 08:08 | 53.75981 | -3.88626 | 24079 ft | 379 kts | 303° |
| 2026-05-06 08:09 | 53.77491 | -3.92274 | 24073 ft | 379 kts | 303° |
| 2026-05-06 08:09 | 53.78998 | -3.95920 | 24068 ft | 379 kts | 303° |
| 2026-05-06 08:09 | 53.80506 | -3.99572 | 24075 ft | 379 kts | 303° |
| 2026-05-06 08:09 | 53.82011 | -4.03221 | 24067 ft | 378 kts | 303° |
| 2026-05-06 08:10 | 53.83518 | -4.06880 | 24067 ft | 378 kts | 303° |
| 2026-05-06 08:10 | 53.85020 | -4.10537 | 24072 ft | 378 kts | 303° |
| 2026-05-06 08:10 | 53.86501 | -4.14147 | 24062 ft | 378 kts | 303° |
| 2026-05-06 08:10 | 53.88002 | -4.17805 | 24072 ft | 378 kts | 303° |
| 2026-05-06 08:11 | 53.89506 | -4.21470 | 24063 ft | 378 kts | 303° |
| 2026-05-06 08:11 | 53.91001 | -4.25128 | 24060 ft | 378 kts | 303° |
| 2026-05-06 08:11 | 53.92497 | -4.28798 | 24082 ft | 378 kts | 303° |
| 2026-05-06 08:11 | 53.93993 | -4.32466 | 24083 ft | 378 kts | 303° |
| 2026-05-06 08:12 | 53.95486 | -4.36130 | 24083 ft | 378 kts | 303° |
| 2026-05-06 08:12 | 53.96959 | -4.39752 | 24083 ft | 378 kts | 303° |
| 2026-05-06 08:12 | 53.98451 | -4.43425 | 24087 ft | 377 kts | 303° |
| 2026-05-06 08:12 | 53.99940 | -4.47091 | 24086 ft | 377 kts | 303° |
| 2026-05-06 08:13 | 54.01432 | -4.50755 | 24089 ft | 377 kts | 304° |
| 2026-05-06 08:13 | 54.03131 | -4.54177 | 24087 ft | 379 kts | 310° |
| 2026-05-06 08:13 | 54.04915 | -4.57472 | 24085 ft | 379 kts | 310° |
| 2026-05-06 08:13 | 54.06695 | -4.60771 | 24083 ft | 379 kts | 310° |
| 2026-05-06 08:14 | 54.08475 | -4.64079 | 24076 ft | 379 kts | 310° |
| 2026-05-06 08:14 | 54.10254 | -4.67389 | 24071 ft | 379 kts | 310° |
| 2026-05-06 08:14 | 54.12010 | -4.70663 | 24051 ft | 380 kts | 310° |
| 2026-05-06 08:14 | 54.13794 | -4.73998 | 24050 ft | 380 kts | 310° |
| 2026-05-06 08:15 | 54.15575 | -4.77333 | 24066 ft | 380 kts | 310° |
| 2026-05-06 08:15 | 54.17356 | -4.80673 | 24068 ft | 380 kts | 310° |
| 2026-05-06 08:15 | 54.19136 | -4.84010 | 24067 ft | 380 kts | 310° |
| 2026-05-06 08:15 | 54.20920 | -4.87352 | 24069 ft | 380 kts | 310° |
| 2026-05-06 08:16 | 54.22700 | -4.90690 | 24071 ft | 380 kts | 310° |
| 2026-05-06 08:16 | 54.24479 | -4.94038 | 24069 ft | 380 kts | 310° |
| 2026-05-06 08:16 | 54.26254 | -4.97383 | 24069 ft | 380 kts | 310° |
| 2026-05-06 08:16 | 54.28003 | -5.00686 | 24069 ft | 380 kts | 310° |
| 2026-05-06 08:17 | 54.29776 | -5.04046 | 24065 ft | 380 kts | 310° |
| 2026-05-06 08:17 | 54.31548 | -5.07404 | 24065 ft | 380 kts | 310° |
| 2026-05-06 08:17 | 54.33320 | -5.10761 | 24064 ft | 380 kts | 310° |
| 2026-05-06 08:17 | 54.35091 | -5.14121 | 24062 ft | 380 kts | 310° |
| 2026-05-06 08:18 | 54.36861 | -5.17485 | 24066 ft | 380 kts | 310° |
| 2026-05-06 08:18 | 54.38629 | -5.20844 | 24069 ft | 380 kts | 310° |
| 2026-05-06 08:18 | 54.40400 | -5.24209 | 24077 ft | 380 kts | 310° |
| 2026-05-06 08:18 | 54.42144 | -5.27538 | 24075 ft | 380 kts | 310° |
| 2026-05-06 08:19 | 54.43908 | -5.30917 | 24072 ft | 380 kts | 310° |
| 2026-05-06 08:19 | 54.45671 | -5.34286 | 23337 ft | 383 kts | 310° |
| 2026-05-06 08:19 | 54.47503 | -5.37672 | 22447 ft | 389 kts | 311° |
| 2026-05-06 08:19 | 54.49373 | -5.41023 | 21808 ft | 387 kts | 312° |
| 2026-05-06 08:20 | 54.51153 | -5.44465 | 21265 ft | 382 kts | 304° |
| 2026-05-06 08:20 | 54.52411 | -5.48437 | 20714 ft | 377 kts | 290° |
| 2026-05-06 08:20 | 54.53248 | -5.52699 | 20177 ft | 374 kts | 287° |
| 2026-05-06 08:20 | 54.54035 | -5.56896 | 19666 ft | 372 kts | 287° |
| 2026-05-06 08:21 | 54.54808 | -5.61084 | 19487 ft | 361 kts | 287° |
| 2026-05-06 08:21 | 54.55548 | -5.65124 | 19365 ft | 348 kts | 287° |
| 2026-05-06 08:21 | 54.56264 | -5.69030 | 19250 ft | 336 kts | 287° |
| 2026-05-06 08:21 | 54.56959 | -5.72809 | 19138 ft | 325 kts | 287° |
| 2026-05-06 08:22 | 54.57632 | -5.76455 | 18962 ft | 315 kts | 287° |
| 2026-05-06 08:22 | 54.58292 | -5.80023 | 18676 ft | 311 kts | 287° |
| 2026-05-06 08:22 | 54.58946 | -5.83570 | 18312 ft | 309 kts | 287° |
| 2026-05-06 08:22 | 54.59583 | -5.87045 | 17908 ft | 307 kts | 287° |
| 2026-05-06 08:23 | 54.60223 | -5.90551 | 17496 ft | 306 kts | 287° |
| 2026-05-06 08:23 | 54.60865 | -5.94060 | 16837 ft | 312 kts | 287° |
| 2026-05-06 08:23 | 54.61530 | -5.97708 | 15958 ft | 324 kts | 287° |
| 2026-05-06 08:23 | 54.62205 | -6.01416 | 15081 ft | 324 kts | 287° |
| 2026-05-06 08:24 | 54.62878 | -6.05127 | 14206 ft | 324 kts | 287° |
| 2026-05-06 08:24 | 54.63542 | -6.08774 | 13597 ft | 312 kts | 287° |
| 2026-05-06 08:24 | 54.64191 | -6.12346 | 12700 ft | 312 kts | 287° |
| 2026-05-06 08:24 | 54.64837 | -6.15915 | 11840 ft | 311 kts | 287° |
| 2026-05-06 08:25 | 54.65479 | -6.19476 | 10999 ft | 309 kts | 287° |
| 2026-05-06 08:25 | 54.66106 | -6.22961 | 10191 ft | 307 kts | 287° |
| 2026-05-06 08:25 | 54.66730 | -6.26486 | 9318 ft | 305 kts | 287° |
| 2026-05-06 08:25 | 54.67349 | -6.29969 | 8435 ft | 302 kts | 287° |
| 2026-05-06 08:26 | 54.67983 | -6.33421 | 7576 ft | 300 kts | 285° |
| 2026-05-06 08:26 | 54.68468 | -6.36910 | 6725 ft | 297 kts | 278° |
| 2026-05-06 08:26 | 54.68630 | -6.40433 | 5870 ft | 294 kts | 266° |
| 2026-05-06 08:26 | 54.68262 | -6.43848 | 5006 ft | 287 kts | 246° |
| 2026-05-06 08:27 | 54.67204 | -6.46702 | 4128 ft | 281 kts | 223° |
| 2026-05-06 08:27 | 54.65620 | -6.48479 | 3284 ft | 276 kts | 197° |
| 2026-05-06 08:27 | 54.63770 | -6.48851 | 2862 ft | 255 kts | 175° |
| 2026-05-06 08:27 | 54.62124 | -6.48161 | 2233 ft | 243 kts | 152° |
| 2026-05-06 08:28 | 54.60869 | -6.46227 | 1350 ft | 247 kts | 121° |
| 2026-05-06 08:28 | 54.60377 | -6.43428 | 604 ft | 243 kts | 88° |
| 2026-05-06 08:28 | 54.60804 | -6.40835 | 488 ft | 214 kts | 65° |
| 2026-05-06 08:28 | 54.61511 | -6.38607 | 659 ft | 209 kts | 67° |
| 2026-05-06 08:29 | 54.62108 | -6.36306 | 775 ft | 210 kts | 70° |
| 2026-05-06 08:29 | 54.62604 | -6.34097 | 833 ft | 184 kts | 71° |
| 2026-05-06 08:29 | 54.63022 | -6.32212 | 827 ft | 157 kts | 72° |
| 2026-05-06 08:29 | 54.63364 | -6.30503 | 688 ft | 143 kts | 75° |
| 2026-05-06 08:30 | 54.63654 | -6.28898 | 567 ft | 140 kts | 73° |
| 2026-05-06 08:30 | 54.64152 | -6.27324 | 677 ft | 157 kts | 61° |
| 2026-05-06 08:30 | 54.64714 | -6.25597 | 671 ft | 176 kts | 65° |
| 2026-05-06 08:30 | 54.65227 | -6.23597 | 399 ft | 192 kts | 70° |
| 2026-05-06 08:31 | 54.65783 | -6.21504 | 327 ft | 192 kts | 65° |
| 2026-05-06 08:31 | 54.66375 | -6.19442 | 784 ft | 189 kts | 66° |
| 2026-05-06 08:31 | 54.67259 | -6.17931 | 1605 ft | 179 kts | 29° |
| 2026-05-06 08:31 | 54.68503 | -6.17892 | 2297 ft | 188 kts | 336° |
| 2026-05-06 08:32 | 54.69454 | -6.19642 | 2184 ft | 228 kts | 284° |
| 2026-05-06 08:32 | 54.69318 | -6.22520 | 2029 ft | 261 kts | 244° |
| 2026-05-06 08:32 | 54.68612 | -6.25596 | 1948 ft | 291 kts | 247° |
| 2026-05-06 08:32 | 54.67931 | -6.28864 | 1524 ft | 274 kts | 247° |
| 2026-05-06 08:33 | 54.66937 | -6.31272 | 1231 ft | 228 kts | 207° |
| 2026-05-06 08:33 | 54.65595 | -6.31442 | 1251 ft | 181 kts | 150° |
| 2026-05-06 08:33 | 54.64809 | -6.29919 | 720 ft | 180 kts | 103° |
| 2026-05-06 08:33 | 54.64566 | -6.27750 | 585 ft | 181 kts | 101° |
| 2026-05-06 08:34 | 54.64565 | -6.25728 | 451 ft | 167 kts | 67° |
| 2026-05-06 08:34 | 54.65738 | -6.21716 | 235 ft | 175 kts | 66° |
| 2026-05-06 08:34 | 54.66058 | -6.20386 | 254 ft | 43 kts | 66° |
| 2026-05-06 08:35 | 54.66168 | -6.20002 | 261 ft | 33 kts | 66° |
| 2026-05-06 08:35 | 54.66273 | -6.19676 | 263 ft | 25 kts | 50° |
| 2026-05-06 08:35 | 54.66314 | -6.19667 | 264 ft | 4 kts | 334° |
| 2026-05-06 08:35 | 54.66342 | -6.19691 | 264 ft | 4 kts | 334° |
| 2026-05-06 08:36 | 54.66364 | -6.19712 | 264 ft | 3 kts | 323° |
| 2026-05-06 08:36 | 54.66384 | -6.19751 | 264 ft | 6 kts | 307° |
| 2026-05-06 08:36 | 54.66394 | -6.19806 | 263 ft | 5 kts | 264° |
| 2026-05-06 08:36 | 54.66389 | -6.19861 | 262 ft | 4 kts | 262° |
| 2026-05-06 08:37 | 54.66373 | -6.19938 | 261 ft | 20 kts | 245° |
| 2026-05-06 08:37 | 54.66240 | -6.20433 | 255 ft | 51 kts | 245° |
| 2026-05-06 08:37 | 54.66098 | -6.20959 | 247 ft | 45 kts | 245° |
| 2026-05-06 08:37 | 54.66061 | -6.21312 | 242 ft | 24 kts | 283° |
| 2026-05-06 08:38 | 54.66068 | -6.21463 | 240 ft | 9 kts | 312° |
| 2026-05-06 08:38 | 54.66089 | -6.21482 | 240 ft | 0 kts | 330° |
| 2026-05-06 08:38 | 54.66095 | -6.21488 | 239 ft | 3 kts | 330° |
| 2026-05-06 08:39 | 54.66113 | -6.21506 | 239 ft | 0 kts | 332° |
| 2026-05-06 08:39 | 54.66106 | -6.21500 | 239 ft | 4 kts | 332° |
| 2026-05-06 08:39 | 54.66099 | -6.21493 | 239 ft | 1 kts | 332° |
| 2026-05-06 08:39 | 54.66093 | -6.21487 | 239 ft | 0 kts | 332° |